< Typhoon 196315 1963 Season Typhoon 196317 >
Typhoon 196316 (IRMA)
General InformationTrack Information on Google Maps || Disaster Info.ResourceGoogle EarthGE AnimationAtom FeedGeoJSON
Detalied Best Track (Time Zone = UTC)
Year Month Day Hour Lat. Long. Pressure (hPa) Wind (kt) Class Image Chart
1963 9 16 12 9.7 153.3 1010 0 2 -- Chart
1963 9 16 18 11.7 153.2 1007 0 2 -- Chart
1963 9 17 00 12.1 151.9 1008 0 2 -- Chart
1963 9 17 06 12.4 150.6 1004 0 2 -- Chart
1963 9 17 12 12.8 149.4 1004 0 2 -- Chart
1963 9 17 18 13.6 148.5 1002 0 9 -- Chart
1963 9 18 00 14.3 146.8 1002 0 9 -- Chart
1963 9 18 06 14.9 145.0 1004 0 2 -- Chart
1963 9 18 12 14.2 143.2 1006 0 2 -- Chart
1963 9 18 18 14.1 141.7 1006 0 2 -- Chart
1963 9 19 00 14.5 140.0 1006 0 2 -- Chart
1963 9 19 06 15.2 138.5 1006 0 2 -- Chart
1963 9 19 12 14.5 136.9 1006 0 2 -- Chart
1963 9 19 18 14.2 135.4 1006 0 2 -- Chart
1963 9 20 00 14.0 134.2 1006 0 2 -- Chart
1963 9 20 06 14.0 133.0 1006 0 2 -- Chart
1963 9 20 12 14.0 132.0 1006 0 2 -- Chart
1963 9 20 18 13.6 131.1 1006 0 2 -- Chart
1963 9 21 00 13.0 130.2 1006 0 2 -- Chart
1963 9 21 06 12.7 129.0 1006 0 2 -- Chart
1963 9 21 12 12.2 127.9 1008 0 2 -- Chart
1963 9 21 18 12.2 126.2 1008 0 2 -- Chart
1963 9 22 00 11.9 125.0 1008 0 2 -- Chart
1963 9 22 06 11.3 123.6 1008 0 2 -- Chart
Japan Meteorological Agency Best Track Data | Correction Date : 1989-06-01
< Typhoon 196315 1963 Season Typhoon 196317 >

Help